Time;durP1;ratioP1;P1;durP2;ratioP2;P2;SDS_P1;SDS_P2;PMS_P1;PMS_P2;Temp;Humidity;BMP_temperature;BMP_pressure;BME280_temperature;BME280_humidity;BME280_pressure;Samples;Min_cycle;Max_cycle;Signal;HPM_P1;HPM_P2
2022/09/27 00:01:09;;;;;;;8.55;6.93;;;;;;;18.87;61.38;100495.72;5054730;28;20031;-84
2022/09/27 00:03:35;;;;;;;9.25;7.25;;;;;;;18.66;61.36;100461.84;5054020;28;20083;-84
2022/09/27 00:06:06;;;;;;;8.13;7.13;;;;;;;18.68;61.86;100473.34;5070069;28;20021;-84
2022/09/27 00:08:33;;;;;;;8.70;7.10;;;;;;;18.87;61.79;100495.72;5036873;28;20383;-84
2022/09/27 00:11:12;;;;;;;8.15;7.30;;;;;;;18.37;61.46;100418.19;5053502;28;20032;-84
2022/09/27 00:13:38;;;;;;;9.02;7.05;;;;;;;18.84;61.51;100492.16;5053460;28;20017;-84
2022/09/27 00:16:04;;;;;;;8.15;7.05;;;;;;;18.61;61.54;100444.16;5070157;28;20107;-84
2022/09/27 00:18:30;;;;;;;7.90;7.10;;;;;;;18.86;61.22;100485.16;5050509;28;20507;-84
2022/09/27 00:23:40;;;;;;;8.63;6.70;;;;;;;18.78;61.63;100470.88;5044969;28;20070;-83
2022/09/27 00:26:08;;;;;;;8.38;7.18;;;;;;;18.86;61.42;100493.97;5051181;28;20028;-83
2022/09/27 00:28:33;;;;;;;8.13;7.32;;;;;;;18.86;61.36;100488.69;5036612;28;20056;-84
2022/09/27 00:30:59;;;;;;;8.57;7.10;;;;;;;18.64;61.48;100446.84;5048445;28;20033;-85
2022/09/27 00:33:25;;;;;;;12.45;6.97;;;;;;;18.88;61.45;100493.97;5035498;28;20033;-83
2022/09/27 00:35:51;;;;;;;8.27;7.28;;;;;;;18.82;61.46;100476.25;5047933;28;20057;-84
2022/09/27 00:38:17;;;;;;;7.13;6.43;;;;;;;18.90;61.47;100481.66;5052924;28;20119;-84
2022/09/27 00:40:43;;;;;;;8.93;7.05;;;;;;;18.88;61.75;100481.66;5051725;28;20494;-84
2022/09/27 00:43:19;;;;;;;;;;;;;;;18.86;61.54;100483.38;5051255;28;20025;-84
2022/09/27 00:45:57;;;;;;;8.45;7.18;;;;;;;18.91;61.51;100476.41;5039735;28;20306;-84
2022/09/27 00:48:26;;;;;;;7.63;6.80;;;;;;;18.78;61.26;100441.78;5046176;28;20527;-85
2022/09/27 00:50:55;;;;;;;8.00;6.80;;;;;;;18.88;61.62;100464.88;5050126;28;20112;-84
2022/09/27 00:53:47;;;;;;;8.50;6.75;;;;;;;18.71;61.41;100419.59;5042475;28;20112;-85
2022/09/27 00:56:17;;;;;;;7.63;6.82;;;;;;;18.81;61.46;100420.69;5039366;28;20033;-84
2022/09/27 00:58:49;;;;;;;7.82;6.93;;;;;;;18.96;61.08;100435.88;5040158;28;20043;-84
2022/09/27 01:01:15;;;;;;;8.13;7.18;;;;;;;18.92;61.00;100454.38;5045730;28;20056;-84
2022/09/27 01:04:06;;;;;;;7.95;7.15;;;;;;;18.88;61.32;100460.50;5045345;28;20057;-84
2022/09/27 01:06:32;;;;;;;7.93;7.05;;;;;;;18.88;61.00;100444.63;5050454;28;20470;-84
2022/09/27 01:08:58;;;;;;;7.90;7.10;;;;;;;18.94;61.45;100450.84;5045294;28;20469;-84
2022/09/27 01:11:39;;;;;;;8.23;6.75;;;;;;;18.74;61.26;100416.13;5049552;28;20083;-84
2022/09/27 01:14:23;;;;;;;7.60;6.90;;;;;;;18.88;61.16;100439.31;5048277;28;20048;-84
2022/09/27 01:17:00;;;;;;;7.18;6.47;;;;;;;18.78;61.10;100420.63;5047471;28;20045;-84
2022/09/27 01:20:02;;;;;;;7.25;6.53;;;;;;;18.97;61.25;100451.78;5046231;28;20029;-83
2022/09/27 01:22:34;;;;;;;7.45;6.70;;;;;;;18.96;61.47;100451.75;5050669;28;20021;-83
2022/09/27 01:25:30;;;;;;;7.68;6.93;;;;;;;18.95;61.34;100445.59;5049890;28;20071;-84
2022/09/27 01:28:12;;;;;;;8.05;6.47;;;;;;;18.94;61.33;100442.91;5049347;28;20559;-84
2022/09/27 01:30:42;;;;;;;7.88;7.07;;;;;;;18.94;61.55;100441.16;5034877;28;20040;-84
2022/09/27 01:33:28;;;;;;;7.47;6.68;;;;;;;18.91;61.31;100443.75;5037590;28;20028;-84
2022/09/27 01:36:11;;;;;;;7.43;6.72;;;;;;;18.92;61.55;100448.16;5068653;28;20032;-84
2022/09/27 01:38:56;;;;;;;7.50;6.70;;;;;;;18.95;61.42;100439.41;5069613;28;20032;-83
2022/09/27 01:41:21;;;;;;;7.72;6.50;;;;;;;18.91;61.56;100446.41;5067799;28;20493;-84
2022/09/27 01:44:10;;;;;;;7.13;6.43;;;;;;;18.87;61.47;100434.88;5070264;28;20067;-83
2022/09/27 01:46:42;;;;;;;7.55;6.82;;;;;;;18.95;61.32;100442.94;5050035;28;20044;-84
2022/09/27 01:49:12;;;;;;;8.05;6.45;;;;;;;18.89;61.43;100446.38;5051222;28;20032;-84
2022/09/27 01:51:49;;;;;;;7.63;6.70;;;;;;;18.90;61.43;100448.16;5051005;28;20115;-84
2022/09/27 01:54:21;;;;;;;8.70;6.93;;;;;;;18.90;61.59;100447.25;5052673;28;20406;-84
2022/09/27 01:56:52;;;;;;;7.45;6.65;;;;;;;18.94;61.44;100440.25;5067763;28;20390;-84
2022/09/27 01:59:28;;;;;;;9.10;6.80;;;;;;;18.92;61.43;100438.50;5052311;28;20043;-84
2022/09/27 02:01:58;;;;;;;7.60;6.80;;;;;;;18.96;61.46;100438.53;5053769;28;20028;-85
2022/09/27 02:04:28;;;;;;;7.68;6.35;;;;;;;18.84;61.52;100418.09;5052464;28;20037;-86
2022/09/27 02:06:58;;;;;;;8.35;6.70;;;;;;;18.83;61.56;100414.53;5057003;28;20482;-85
2022/09/27 02:09:29;;;;;;;7.38;6.50;;;;;;;18.92;61.29;100429.66;5054890;28;20040;-85
2022/09/27 02:11:59;;;;;;;8.32;7.40;;;;;;;18.84;61.44;100411.03;5054663;28;20032;-85
2022/09/27 02:14:53;;;;;;;7.75;6.95;;;;;;;18.65;61.63;100388.69;5066299;28;20021;-82
2022/09/27 02:17:59;;;;;;;7.50;6.57;;;;;;;18.91;61.37;100439.34;5072632;28;20106;-85
2022/09/27 02:21:04;;;;;;;8.05;6.57;;;;;;;18.92;61.43;100430.56;5070869;28;20047;-85
2022/09/27 02:23:32;;;;;;;7.30;6.60;;;;;;;18.94;61.53;100427.91;4924942;28;20651;-85
2022/09/27 02:26:01;;;;;;;7.47;6.78;;;;;;;18.90;61.50;100440.22;4952414;28;20058;-84
2022/09/27 02:28:32;;;;;;;8.68;6.90;;;;;;;18.92;61.63;100433.22;4998084;28;20568;-83
2022/09/27 02:30:58;;;;;;;7.55;6.60;;;;;;;18.71;61.46;100404.66;5056906;28;20032;-85
2022/09/27 02:33:43;;;;;;;7.25;6.55;;;;;;;18.49;61.44;100381.38;5048948;28;20028;-85
2022/09/27 02:36:10;;;;;;;10.43;6.90;;;;;;;18.61;61.36;100388.63;5052222;28;20025;-85
2022/09/27 02:38:36;;;;;;;7.40;6.60;;;;;;;18.68;61.43;100401.94;5073107;28;20028;-85
2022/09/27 02:41:02;;;;;;;7.28;6.10;;;;;;;18.86;61.45;100425.19;5054515;28;20524;-85
2022/09/27 02:43:29;;;;;;;7.05;6.13;;;;;;;18.62;61.30;100370.09;5034933;28;20028;-86
2022/09/27 02:46:14;;;;;;;7.53;6.30;;;;;;;18.92;61.40;100421.72;5051160;28;20029;-85
2022/09/27 02:48:58;;;;;;;8.02;6.90;;;;;;;18.94;61.37;100416.44;5045548;28;20040;-86
2022/09/27 02:51:40;;;;;;;8.75;6.60;;;;;;;18.85;61.17;100393.41;5054968;28;20024;-83
2022/09/27 02:54:23;;;;;;;7.75;6.82;;;;;;;18.90;61.43;100403.19;5072992;28;20405;-84
2022/09/27 02:56:55;;;;;;;7.07;6.00;;;;;;;18.94;61.29;100412.03;5055206;28;20505;-84
2022/09/27 02:59:33;;;;;;;7.28;6.57;;;;;;;18.96;61.23;100407.66;5073856;28;20033;-84
2022/09/27 03:02:31;;;;;;;6.82;6.18;;;;;;;18.86;61.21;100401.38;5051568;28;20528;-84
2022/09/27 03:05:18;;;;;;;7.22;6.45;;;;;;;18.94;60.88;100413.81;5051408;28;20118;-84
2022/09/27 03:07:44;;;;;;;7.07;6.38;;;;;;;18.92;61.46;100404.09;5053501;28;20119;-84
2022/09/27 03:10:25;;;;;;;7.00;6.30;;;;;;;18.94;61.33;100396.16;5070529;28;20115;-85
2022/09/27 03:12:51;;;;;;;7.10;6.38;;;;;;;18.82;61.37;100378.38;5038407;28;20109;-84
2022/09/27 03:15:16;;;;;;;6.85;6.15;;;;;;;18.88;61.32;100388.13;5041008;28;20470;-85
2022/09/27 03:17:42;;;;;;;7.35;6.55;;;;;;;18.89;61.51;100389.94;5067585;28;20123;-84
2022/09/27 03:20:08;;;;;;;7.32;6.30;;;;;;;18.60;61.32;100326.00;5070342;28;20036;-84
2022/09/27 03:22:34;;;;;;;7.47;6.65;;;;;;;18.66;61.41;100337.56;5056216;28;20040;-84
2022/09/27 03:25:00;;;;;;;6.90;6.20;;;;;;;18.71;61.37;100350.84;5072230;28;20029;-83
2022/09/27 03:27:26;;;;;;;7.75;6.38;;;;;;;18.81;61.36;100357.19;5061202;28;20647;-84
2022/09/27 03:29:51;;;;;;;7.18;6.45;;;;;;;18.75;61.23;100349.13;5073140;28;20036;-85
2022/09/27 03:32:17;;;;;;;6.53;5.93;;;;;;;18.82;61.43;100354.56;5058846;28;20033;-83
2022/09/27 03:34:43;;;;;;;6.82;6.13;;;;;;;18.69;61.25;100318.22;5060690;28;20039;-85
2022/09/27 03:37:08;;;;;;;6.97;6.28;;;;;;;18.91;61.29;100367.03;5072656;28;20111;-84
2022/09/27 03:39:34;;;;;;;7.75;6.47;;;;;;;18.56;61.32;100303.91;5055673;28;20036;-84
2022/09/27 03:42:00;;;;;;;7.75;6.70;;;;;;;18.64;61.33;100325.19;5064761;28;20115;-85
2022/09/27 03:44:25;;;;;;;7.30;6.60;;;;;;;18.82;61.50;100354.56;5068361;28;20178;-85
2022/09/27 03:46:51;;;;;;;7.43;6.32;;;;;;;18.48;61.28;100298.53;5072912;28;20516;-85
2022/09/27 03:49:16;;;;;;;7.32;6.63;;;;;;;18.50;61.37;100293.28;5072497;28;20025;-84
2022/09/27 03:51:42;;;;;;;8.23;6.75;;;;;;;18.99;61.04;100364.50;5050558;28;20121;-84
2022/09/27 03:54:08;;;;;;;6.82;6.13;;;;;;;18.72;61.24;100315.59;5071677;28;20497;-85
2022/09/27 03:56:34;;;;;;;;;;;;;;;18.99;61.14;100370.66;5071180;28;20078;-85
2022/09/27 03:59:00;;;;;;;6.57;5.88;;;;;;;18.51;61.10;100290.63;5051707;28;19912;-85
2022/09/27 04:01:26;;;;;;;7.18;6.28;;;;;;;18.88;61.06;100359.03;5068490;28;20025;-85
2022/09/27 04:03:52;;;;;;;7.05;6.35;;;;;;;18.71;61.23;100330.59;5068108;28;20028;-85
2022/09/27 04:06:18;;;;;;;6.40;5.78;;;;;;;18.92;61.51;100367.06;5067802;28;20107;-84
2022/09/27 04:08:44;;;;;;;6.72;6.03;;;;;;;18.54;61.30;100292.41;5068168;28;20040;-84
2022/09/27 04:11:10;;;;;;;7.45;6.35;;;;;;;18.99;61.27;100372.44;5072081;28;20078;-84
2022/09/27 04:13:36;;;;;;;6.95;6.32;;;;;;;18.68;61.42;100327.88;5071806;28;20021;-84
2022/09/27 04:16:02;;;;;;;7.53;6.22;;;;;;;18.70;61.23;100323.50;5072588;28;20035;-83
2022/09/27 04:18:28;;;;;;;7.07;6.38;;;;;;;18.87;61.28;100351.97;5071932;28;20020;-83
2022/09/27 04:20:53;;;;;;;6.43;5.82;;;;;;;18.91;61.16;100364.38;5051357;28;20502;-84
2022/09/27 04:23:19;;;;;;;7.15;6.45;;;;;;;18.98;61.00;100368.00;5071624;28;20032;-84
2022/09/27 04:25:45;;;;;;;7.13;6.40;;;;;;;18.84;61.26;100329.03;5071707;28;20029;-84
2022/09/27 04:28:11;;;;;;;;;;;;;;;18.98;61.15;100349.47;5066882;28;20045;-84
2022/09/27 04:33:22;;;;;;;6.60;6.00;;;;;;;18.95;60.92;100337.09;5055490;28;20036;-83
2022/09/27 04:38:32;;;;;;;7.35;6.50;;;;;;;18.90;61.33;100337.03;5058888;28;20029;-83
2022/09/27 04:41:00;;;;;;;6.95;6.25;;;;;;;18.98;61.20;100352.13;5055764;28;20029;-83
2022/09/27 04:43:27;;;;;;;6.88;6.20;;;;;;;18.92;61.48;100352.91;5043312;28;20029;-83
2022/09/27 04:45:52;;;;;;;6.65;5.93;;;;;;;19.05;61.17;100365.47;5071185;28;20025;-84
2022/09/27 04:48:18;;;;;;;6.57;5.85;;;;;;;19.01;61.08;100365.41;5070542;28;20074;-83
2022/09/27 04:50:44;;;;;;;7.45;6.55;;;;;;;18.85;61.04;100332.56;5071649;28;20409;-83
2022/09/27 04:53:15;;;;;;;7.03;6.20;;;;;;;18.96;61.37;100357.38;5071527;28;20019;-83
2022/09/27 04:55:48;;;;;;;6.90;6.15;;;;;;;18.95;61.23;100346.81;5070848;28;20048;-85
2022/09/27 04:58:14;;;;;;;6.45;5.72;;;;;;;18.99;61.21;100352.16;5069792;28;20009;-85
2022/09/27 05:00:41;;;;;;;7.63;5.80;;;;;;;18.99;61.21;100352.16;5055269;28;20082;-82
2022/09/27 05:03:07;;;;;;;6.13;5.53;;;;;;;18.97;61.16;100351.25;5070901;28;20089;-82
2022/09/27 05:05:33;;;;;;;7.32;6.50;;;;;;;18.94;61.10;100356.47;5053237;28;20481;-84
2022/09/27 05:07:59;;;;;;;8.18;6.25;;;;;;;19.00;61.19;100363.63;5071210;28;20051;-83
2022/09/27 05:10:25;;;;;;;6.43;5.60;;;;;;;19.00;61.41;100368.91;5070510;28;20063;-83
2022/09/27 05:12:50;;;;;;;6.57;5.88;;;;;;;19.02;61.15;100369.81;5071563;28;20066;-85
2022/09/27 05:15:16;;;;;;;7.18;6.10;;;;;;;19.01;61.27;100368.94;5068271;28;20029;-84
2022/09/27 05:17:41;;;;;;;7.30;6.25;;;;;;;19.05;61.03;100372.50;5070815;28;20035;-84
2022/09/27 05:20:09;;;;;;;6.75;6.07;;;;;;;18.98;61.26;100366.22;5072397;28;20030;-84
2022/09/27 05:22:35;;;;;;;6.68;5.97;;;;;;;18.75;61.30;100336.78;5063615;28;20419;-83
2022/09/27 05:25:00;;;;;;;6.53;5.93;;;;;;;19.03;61.16;100385.72;5068611;28;20504;-83
2022/09/27 05:27:26;;;;;;;6.78;5.95;;;;;;;18.95;61.34;100368.84;5071238;28;20029;-83
2022/09/27 05:29:52;;;;;;;7.40;6.28;;;;;;;19.02;61.27;100370.69;5070788;28;20140;-84
2022/09/27 05:32:17;;;;;;;6.82;6.13;;;;;;;18.99;61.16;100360.09;5070229;28;20034;-85
2022/09/27 05:34:43;;;;;;;6.70;6.00;;;;;;;19.02;61.10;100359.22;5051058;28;20123;-85
2022/09/27 05:37:09;;;;;;;6.53;5.82;;;;;;;18.96;61.22;100352.09;5062984;28;20117;-85
2022/09/27 05:39:34;;;;;;;8.05;6.45;;;;;;;18.89;61.14;100340.53;5054331;28;20501;-85
2022/09/27 05:42:01;;;;;;;6.90;6.20;;;;;;;19.06;61.10;100359.28;5050506;28;20032;-86
2022/09/27 05:44:27;;;;;;;7.70;6.03;;;;;;;19.09;60.98;100359.34;5035281;28;20146;-86
2022/09/27 05:46:52;;;;;;;6.57;5.88;;;;;;;19.03;61.13;100353.97;5059598;28;20040;-84
2022/09/27 05:49:19;;;;;;;6.40;5.80;;;;;;;19.07;61.14;100357.53;5051543;28;20033;-83
2022/09/27 05:51:44;;;;;;;6.90;6.20;;;;;;;19.07;61.09;100354.88;5053210;28;20033;-83
2022/09/27 05:54:10;;;;;;;6.93;6.00;;;;;;;18.94;61.04;100335.31;5032489;28;20080;-84
2022/09/27 05:56:35;;;;;;;6.70;5.93;;;;;;;19.06;61.15;100355.75;5037352;28;20505;-84
2022/09/27 05:59:01;;;;;;;7.18;6.10;;;;;;;19.07;61.19;100355.78;5050630;28;20410;-84
2022/09/27 06:01:27;;;;;;;6.53;5.93;;;;;;;19.09;61.05;100345.19;5053499;28;20060;-86
2022/09/27 06:03:53;;;;;;;6.72;6.00;;;;;;;19.06;61.10;100338.13;5049527;28;20410;-85
2022/09/27 06:06:22;;;;;;;6.97;6.00;;;;;;;19.08;61.29;100360.19;5061172;28;20111;-85
2022/09/27 06:08:48;;;;;;;6.68;5.97;;;;;;;19.02;61.18;100346.00;5059365;28;20406;-86
2022/09/27 06:11:15;;;;;;;7.50;6.47;;;;;;;19.09;61.02;100359.34;5050375;28;20045;-85
2022/09/27 06:13:41;;;;;;;7.55;6.20;;;;;;;19.15;61.11;100357.63;5064700;28;20028;-85
2022/09/27 06:16:09;;;;;;;7.68;6.60;;;;;;;19.08;61.08;100349.59;5067449;28;20033;-84
2022/09/27 06:18:35;;;;;;;7.45;6.32;;;;;;;19.14;61.08;100367.34;5067668;28;20024;-86
2022/09/27 06:21:02;;;;;;;6.88;6.18;;;;;;;19.12;61.34;100366.44;5065327;28;20096;-86
2022/09/27 06:23:31;;;;;;;7.00;6.30;;;;;;;19.16;61.41;100367.38;5055943;28;20031;-82
2022/09/27 06:26:01;;;;;;;7.85;6.40;;;;;;;19.10;61.67;100357.56;5072446;28;20107;-85
2022/09/27 06:28:26;;;;;;;6.88;6.00;;;;;;;19.16;61.37;100356.78;5069647;28;20593;-84
2022/09/27 06:30:52;;;;;;;6.93;5.90;;;;;;;19.18;61.46;100352.38;5068652;28;20033;-84
2022/09/27 06:33:19;;;;;;;7.45;6.28;;;;;;;19.12;61.26;100338.19;5061467;28;20586;-85
2022/09/27 06:35:45;;;;;;;7.32;6.28;;;;;;;19.14;61.46;100340.88;5046468;28;20028;-84
2022/09/27 06:38:14;;;;;;;8.30;6.50;;;;;;;19.00;61.40;100313.34;5056132;28;20020;-84
2022/09/27 06:40:39;;;;;;;6.82;6.05;;;;;;;19.14;61.38;100335.56;5044136;28;20033;-85
2022/09/27 06:43:07;;;;;;;7.85;6.10;;;;;;;19.13;61.62;100336.44;5069742;28;20107;-85
2022/09/27 06:45:34;;;;;;;6.72;6.00;;;;;;;19.05;61.24;100306.34;5054419;28;20137;-84
2022/09/27 06:48:04;;;;;;;7.72;6.30;;;;;;;19.22;61.26;100328.63;5054049;28;20054;-84
2022/09/27 06:50:32;;;;;;;6.65;5.95;;;;;;;19.20;61.26;100334.75;5070648;28;20055;-84
2022/09/27 06:52:58;;;;;;;7.00;6.30;;;;;;;19.18;60.91;100324.16;5056284;28;20056;-83
2022/09/27 06:55:24;;;;;;;6.72;6.03;;;;;;;19.23;60.86;100330.38;5073823;28;20052;-85
2022/09/27 07:00:46;;;;;;;6.20;5.60;;;;;;;19.26;60.50;100334.81;5050584;28;20038;-87
2022/09/27 07:03:13;;;;;;;6.40;5.70;;;;;;;19.24;61.74;100336.56;5039987;28;20041;-86
2022/09/27 07:05:40;;;;;;;6.18;5.57;;;;;;;19.14;61.16;100322.34;5045469;28;20016;-87
2022/09/27 07:08:06;;;;;;;7.50;6.15;;;;;;;19.16;61.31;100317.06;5060671;28;20028;-86
2022/09/27 07:10:34;;;;;;;6.97;5.57;;;;;;;19.20;60.89;100302.97;5056383;28;20025;-87
2022/09/27 07:13:07;;;;;;;7.38;6.18;;;;;;;19.23;60.68;100325.09;5073525;28;20459;-86
2022/09/27 07:15:35;;;;;;;7.60;5.78;;;;;;;19.30;61.31;100329.59;5072303;28;20025;-87
2022/09/27 07:18:01;;;;;;;6.60;5.90;;;;;;;19.30;60.78;100328.69;5073100;28;20059;-87
2022/09/27 07:20:28;;;;;;;6.30;5.50;;;;;;;19.29;61.15;100324.28;5056372;28;20063;-88
2022/09/27 07:22:54;;;;;;;6.95;6.07;;;;;;;19.14;60.39;100298.53;5064679;28;20536;-88
2022/09/27 07:25:19;;;;;;;6.43;5.72;;;;;;;19.29;60.89;100326.91;5053525;28;20028;-87
2022/09/27 07:27:45;;;;;;;6.40;5.78;;;;;;;19.34;61.21;100317.25;5073481;28;20081;-87
2022/09/27 07:30:11;;;;;;;6.88;5.90;;;;;;;19.28;60.77;100315.44;5055033;28;20508;-87
2022/09/27 07:32:37;;;;;;;6.13;5.53;;;;;;;19.14;61.15;100284.41;5063283;28;20575;-87
2022/09/27 07:35:04;;;;;;;6.47;5.82;;;;;;;19.37;60.60;100316.41;5042686;28;20017;-87
2022/09/27 07:37:34;;;;;;;7.45;5.80;;;;;;;19.24;60.69;100303.06;5068131;28;20107;-85
2022/09/27 07:40:01;;;;;;;6.60;5.70;;;;;;;19.21;60.45;100299.47;5060966;28;20024;-86
2022/09/27 07:42:27;;;;;;;7.28;5.40;;;;;;;19.29;60.80;100311.03;5056365;28;20078;-86
2022/09/27 07:44:54;;;;;;;6.75;5.88;;;;;;;19.31;60.33;100304.88;5072439;28;20482;-86
2022/09/27 07:47:22;;;;;;;6.55;5.80;;;;;;;19.40;59.92;100324.38;5073185;28;20111;-86
2022/09/27 07:49:49;;;;;;;6.53;5.75;;;;;;;19.39;59.75;100319.94;5057367;28;20028;-86
2022/09/27 07:52:14;;;;;;;8.25;5.88;;;;;;;19.39;60.15;100309.34;5072970;28;20028;-86
2022/09/27 07:54:40;;;;;;;6.38;5.68;;;;;;;19.32;60.11;100296.09;5051880;28;20024;-86
2022/09/27 07:57:06;;;;;;;7.38;5.45;;;;;;;19.26;60.71;100289.81;5066281;28;20116;-87
2022/09/27 07:59:31;;;;;;;6.15;5.40;;;;;;;19.26;60.17;100303.03;5066900;28;20394;-86
2022/09/27 08:01:57;;;;;;;7.05;5.78;;;;;;;19.28;59.74;100312.81;5072582;28;20081;-86
2022/09/27 08:04:22;;;;;;;6.07;5.47;;;;;;;19.34;60.20;100309.31;5056254;28;20032;-86
2022/09/27 08:06:48;;;;;;;6.25;5.65;;;;;;;19.39;59.97;100314.66;5072055;28;20033;-86
2022/09/27 08:09:13;;;;;;;6.97;5.40;;;;;;;19.30;59.80;100300.47;5072786;28;20599;-87
2022/09/27 08:11:39;;;;;;;7.28;5.22;;;;;;;19.39;60.30;100302.31;5071591;28;20486;-86
2022/09/27 08:14:05;;;;;;;6.75;5.72;;;;;;;19.29;60.32;100284.56;5072627;28;20453;-86
2022/09/27 08:16:32;;;;;;;6.47;5.82;;;;;;;19.37;61.09;100301.44;5055857;28;20024;-84
2022/09/27 08:18:58;;;;;;;6.13;5.53;;;;;;;19.34;60.29;100296.06;5057179;28;20052;-86
2022/09/27 08:21:23;;;;;;;7.50;5.72;;;;;;;19.41;60.09;100294.38;5063458;28;20084;-86
2022/09/27 08:23:49;;;;;;;6.63;5.75;;;;;;;19.21;60.25;100270.34;5055022;28;20102;-87
2022/09/27 08:26:15;;;;;;;6.10;5.50;;;;;;;19.32;60.67;100296.09;5072164;28;20501;-87
2022/09/27 08:28:40;;;;;;;6.65;5.47;;;;;;;19.40;60.61;100301.44;5071671;28;20044;-86
2022/09/27 08:31:06;;;;;;;6.38;5.78;;;;;;;19.39;60.44;100298.78;5067691;28;20033;-86
2022/09/27 08:33:31;;;;;;;7.45;5.80;;;;;;;19.38;60.69;100289.94;5062986;28;20453;-85
2022/09/27 08:35:57;;;;;;;6.18;5.57;;;;;;;19.35;60.37;100286.41;5071814;28;20098;-86
2022/09/27 08:38:22;;;;;;;6.10;5.50;;;;;;;19.36;61.05;100285.50;5072063;28;20481;-87
2022/09/27 08:40:48;;;;;;;6.55;5.80;;;;;;;19.37;60.86;100277.59;5055844;28;20087;-85
2022/09/27 08:43:22;;;;;;;6.13;5.53;;;;;;;19.24;60.34;100251.84;5067377;28;20025;-85
2022/09/27 08:46:19;;;;;;;6.45;5.75;;;;;;;19.36;61.04;100274.91;5070198;28;20063;-86
2022/09/27 08:48:50;;;;;;;6.97;5.60;;;;;;;19.32;60.93;100271.34;5069507;28;20029;-86
2022/09/27 08:51:20;;;;;;;7.47;5.68;;;;;;;19.38;61.04;100258.16;5055136;28;20564;-88
2022/09/27 08:53:47;;;;;;;6.60;5.95;;;;;;;19.41;60.70;100258.22;5071800;28;20035;-86
2022/09/27 08:56:14;;;;;;;6.13;5.53;;;;;;;19.33;60.80;100251.97;5055796;28;20024;-87
2022/09/27 08:58:47;;;;;;;6.35;5.75;;;;;;;19.28;60.79;100238.69;5053552;28;20021;-87
2022/09/27 09:01:16;;;;;;;7.22;5.75;;;;;;;19.34;60.27;100243.13;5055259;28;20123;-86
2022/09/27 09:03:49;;;;;;;6.68;5.85;;;;;;;19.42;60.20;100265.28;5056115;28;20027;-86
2022/09/27 09:06:28;;;;;;;6.32;5.70;;;;;;;19.44;60.28;100260.00;5071672;28;20028;-87
2022/09/27 09:09:33;;;;;;;6.45;5.55;;;;;;;19.44;60.18;100270.59;5055368;28;20039;-86
2022/09/27 09:15:03;;;;;;;6.82;5.90;;;;;;;19.35;60.63;100251.97;5070827;28;20120;-87
2022/09/27 09:17:52;;;;;;;6.63;5.30;;;;;;;19.40;61.48;100259.06;5059574;28;20028;-86
2022/09/27 09:20:31;;;;;;;6.22;5.68;;;;;;;19.33;61.27;100238.72;5054791;28;20035;-86
2022/09/27 09:23:02;;;;;;;6.10;5.30;;;;;;;19.46;60.61;100267.09;5071161;28;20036;-86
2022/09/27 09:25:39;;;;;;;6.65;5.70;;;;;;;19.44;61.53;100268.81;5070921;28;20178;-86
2022/09/27 09:28:27;;;;;;;6.95;5.95;;;;;;;19.42;61.72;100270.56;5054845;28;20028;-85
2022/09/27 09:30:56;;;;;;;5.90;5.30;;;;;;;19.44;61.46;100266.19;5046837;28;20391;-87
2022/09/27 09:33:28;;;;;;;7.20;5.35;;;;;;;19.36;60.86;100253.75;5063642;28;20033;-86
2022/09/27 09:36:00;;;;;;;7.88;5.90;;;;;;;19.35;61.33;100255.50;5048327;28;20477;-87
2022/09/27 09:38:44;;;;;;;7.40;6.00;;;;;;;19.49;61.22;100256.53;5070739;28;20131;-86
2022/09/27 09:41:25;;;;;;;6.25;5.65;;;;;;;19.47;61.63;100260.94;5054468;28;20020;-87
2022/09/27 09:43:53;;;;;;;7.15;5.50;;;;;;;19.47;60.56;100255.63;5069632;28;20066;-86
2022/09/27 09:46:34;;;;;;;6.78;6.07;;;;;;;19.48;62.99;100256.50;5069523;28;20052;-86
2022/09/27 09:49:17;;;;;;;6.45;5.72;;;;;;;19.41;62.54;100247.63;5054779;28;20025;-86
2022/09/27 09:51:46;;;;;;;7.25;5.90;;;;;;;19.44;63.29;100244.13;5049878;28;20037;-86
2022/09/27 09:54:23;;;;;;;7.57;5.95;;;;;;;19.39;62.70;100232.56;5047170;28;20641;-85
2022/09/27 09:57:02;;;;;;;6.97;6.28;;;;;;;19.48;62.52;100244.16;5070804;28;20114;-86
2022/09/27 09:59:35;;;;;;;7.95;5.90;;;;;;;19.28;62.60;100190.13;5054655;28;20037;-86
2022/09/27 10:02:25;;;;;;;8.32;6.10;;;;;;;19.50;63.49;100241.53;5051685;28;20033;-86
2022/09/27 10:04:50;;;;;;;6.63;5.90;;;;;;;19.50;62.71;100234.47;5070792;28;20016;-86
2022/09/27 10:07:21;;;;;;;7.28;6.20;;;;;;;19.48;63.45;100232.69;5070989;28;20394;-86
2022/09/27 10:09:46;;;;;;;8.23;6.00;;;;;;;19.50;63.64;100234.47;5054391;28;20060;-87
2022/09/27 10:12:12;;;;;;;9.23;6.55;;;;;;;19.41;65.09;100215.84;5070322;28;20558;-86
2022/09/27 10:14:38;;;;;;;6.68;5.60;;;;;;;19.48;64.09;100220.31;5054637;28;20478;-86
2022/09/27 10:17:09;;;;;;;8.93;5.97;;;;;;;19.51;63.63;100212.41;5055706;28;20032;-87
2022/09/27 10:19:37;;;;;;;6.85;5.97;;;;;;;19.52;64.24;100208.88;5054055;28;20460;-87
2022/09/27 10:22:11;;;;;;;8.85;6.05;;;;;;;19.52;64.21;100200.94;5052788;28;20432;-86
2022/09/27 10:25:02;;;;;;;9.70;6.43;;;;;;;19.52;63.72;100185.06;5070679;28;20024;-87
2022/09/27 10:27:38;;;;;;;7.75;6.25;;;;;;;19.65;64.91;100209.00;5058949;28;20551;-86
2022/09/27 10:30:04;;;;;;;8.53;6.30;;;;;;;19.59;64.63;100191.28;5052747;28;20565;-87
2022/09/27 10:32:35;;;;;;;10.88;6.50;;;;;;;19.59;64.58;100196.56;5039950;28;20356;-84
2022/09/27 10:35:28;;;;;;;8.48;6.18;;;;;;;19.61;64.47;100200.13;5043031;28;20090;-92
2022/09/27 10:38:16;;;;;;;12.98;7.28;;;;;;;19.63;64.54;100197.50;5054045;28;20021;-88
2022/09/27 10:40:42;;;;;;;8.88;6.40;;;;;;;19.54;64.70;100190.38;5033369;28;20041;-86
2022/09/27 10:43:24;;;;;;;;;;;;;;;19.65;64.23;100187.78;5051683;28;20075;-85
2022/09/27 10:45:58;;;;;;;9.38;6.45;;;;;;;19.59;64.82;100182.44;5048358;28;19913;-83
2022/09/27 10:48:24;;;;;;;9.02;6.53;;;;;;;19.62;64.80;100175.44;5063427;28;20029;-86
2022/09/27 10:51:01;;;;;;;10.88;6.47;;;;;;;19.67;64.69;100172.81;5045973;28;20017;-85
2022/09/27 10:53:28;;;;;;;9.55;6.25;;;;;;;19.67;64.22;100178.97;5035819;28;20095;-85
2022/09/27 10:55:54;;;;;;;9.20;6.40;;;;;;;19.64;64.60;100151.56;5053003;28;20025;-85
2022/09/27 10:58:26;;;;;;;8.90;5.97;;;;;;;19.72;63.96;100163.16;5040205;28;20583;-86
2022/09/27 11:00:56;;;;;;;7.20;5.60;;;;;;;19.72;64.21;100173.75;5053952;28;20516;-85
2022/09/27 11:03:24;;;;;;;7.35;5.75;;;;;;;19.76;64.68;100169.38;5053799;28;20032;-86
2022/09/27 11:05:50;;;;;;;9.25;6.20;;;;;;;19.71;65.44;100154.31;5052398;28;20052;-86
2022/09/27 11:08:18;;;;;;;8.07;6.63;;;;;;;19.75;64.69;100171.13;5069173;28;20545;-86
2022/09/27 11:11:00;;;;;;;10.07;6.53;;;;;;;19.69;64.51;100150.75;5052548;28;20679;-86
2022/09/27 11:13:31;;;;;;;9.35;5.88;;;;;;;19.78;64.50;100167.63;5052167;28;20021;-87
2022/09/27 11:16:11;;;;;;;8.27;5.95;;;;;;;19.78;64.90;100162.31;5046015;28;20021;-87
2022/09/27 11:19:10;;;;;;;7.53;6.03;;;;;;;19.63;64.88;100140.09;5050211;28;20033;-86
2022/09/27 11:22:04;;;;;;;6.88;6.18;;;;;;;19.70;64.56;100149.00;5067500;28;20439;-87
2022/09/27 11:24:42;;;;;;;8.10;6.10;;;;;;;19.78;64.54;100159.66;5044294;28;20072;-85
2022/09/27 11:27:17;;;;;;;7.18;6.03;;;;;;;19.79;64.92;100162.34;5040719;28;20035;-84
2022/09/27 11:30:06;;;;;;;8.30;6.00;;;;;;;19.83;64.68;100139.38;5059520;28;20029;-85
2022/09/27 11:32:48;;;;;;;8.65;6.05;;;;;;;19.82;64.90;100138.50;5071188;28;20460;-84
2022/09/27 11:35:33;;;;;;;8.07;6.30;;;;;;;19.86;64.95;100139.41;5047330;28;20026;-85
2022/09/27 11:38:28;;;;;;;8.65;6.05;;;;;;;19.86;65.17;100124.38;5072545;28;20029;-85
2022/09/27 11:41:36;;;;;;;7.07;6.10;;;;;;;19.88;65.40;100129.72;5072298;28;20040;-85
2022/09/27 11:44:11;;;;;;;7.32;6.07;;;;;;;19.92;64.97;100116.47;5068616;28;20512;-84
2022/09/27 11:46:41;;;;;;;8.88;6.40;;;;;;;19.90;64.87;100098.81;5068588;28;20029;-84
2022/09/27 11:49:22;;;;;;;9.77;6.18;;;;;;;19.94;65.01;100092.66;5056661;28;20025;-84
2022/09/27 11:52:21;;;;;;;8.05;5.85;;;;;;;19.98;64.77;100088.22;5055300;28;20024;-84
2022/09/27 11:55:07;;;;;;;7.10;5.63;;;;;;;20.01;63.77;100083.84;5049469;28;20098;-85
2022/09/27 11:57:48;;;;;;;9.68;5.85;;;;;;;20.05;63.59;100082.97;5067650;28;20455;-83
2022/09/27 12:00:23;;;;;;;9.68;5.80;;;;;;;19.94;64.43;100063.50;5046948;28;20028;-84